createdAt,value
2023-12-30T00:02:06.650Z,100.00
2023-12-30T00:04:36.398Z,100.00
2023-12-30T00:07:08.866Z,100.00
2023-12-30T00:09:39.034Z,100.00
2023-12-30T00:12:09.387Z,100.00
2023-12-30T00:14:39.117Z,100.00
2023-12-30T00:17:08.884Z,100.00
2023-12-30T00:19:43.818Z,100.00
2023-12-30T00:22:16.272Z,100.00
2023-12-30T00:24:46.594Z,100.00
2023-12-30T00:27:16.384Z,100.00
2023-12-30T00:29:46.154Z,100.00
2023-12-30T00:32:16.341Z,100.00
2023-12-30T00:34:46.276Z,100.00
2023-12-30T00:37:20.686Z,100.00
2023-12-30T00:39:50.911Z,100.00
2023-12-30T00:42:20.696Z,100.00
2023-12-30T00:44:50.452Z,100.00
2023-12-30T00:47:20.911Z,100.00
2023-12-30T00:49:50.706Z,100.00
2023-12-30T00:52:23.414Z,100.00
2023-12-30T00:54:53.252Z,100.00
2023-12-30T00:57:23.058Z,100.00
2023-12-30T00:59:55.806Z,100.00
2023-12-30T01:02:25.580Z,100.00
2023-12-30T01:04:55.722Z,100.00
2023-12-30T01:07:28.254Z,100.00
2023-12-30T01:09:58.110Z,100.00
2023-12-30T01:12:27.921Z,100.00
2023-12-30T01:14:57.668Z,100.00
2023-12-30T01:17:28.065Z,100.00
2023-12-30T01:19:57.956Z,100.00
2023-12-30T01:22:30.314Z,100.00
2023-12-30T01:25:00.251Z,100.00
2023-12-30T01:27:30.197Z,100.00
2023-12-30T01:29:59.952Z,100.00
2023-12-30T01:32:29.749Z,100.00
2023-12-30T01:35:00.855Z,100.00
2023-12-30T01:37:33.579Z,100.00
2023-12-30T01:40:03.948Z,100.00
2023-12-30T01:42:33.696Z,100.00
2023-12-30T01:45:03.731Z,100.00
2023-12-30T01:47:34.075Z,100.00
2023-12-30T01:50:04.007Z,100.00
2023-12-30T01:52:37.603Z,100.00
2023-12-30T01:55:08.256Z,100.00
2023-12-30T01:57:38.885Z,100.00
2023-12-30T02:00:10.278Z,100.00
2023-12-30T02:02:43.936Z,100.00
2023-12-30T02:05:14.832Z,100.00
2023-12-30T02:07:51.152Z,100.00
2023-12-30T02:10:20.978Z,100.00
2023-12-30T02:12:50.773Z,100.00
2023-12-30T02:15:23.012Z,100.00
2023-12-30T02:17:56.404Z,100.00
2023-12-30T02:20:26.403Z,100.00
2023-12-30T02:22:58.862Z,100.00
2023-12-30T02:25:28.731Z,100.00
2023-12-30T02:27:58.568Z,100.00
2023-12-30T02:30:28.375Z,100.00
2023-12-30T02:33:00.350Z,100.00
2023-12-30T02:35:31.095Z,100.00
2023-12-30T02:38:03.511Z,100.00
2023-12-30T02:40:33.363Z,100.00
2023-12-30T02:43:03.338Z,100.00
2023-12-30T02:45:33.718Z,100.00
2023-12-30T02:48:04.198Z,100.00
2023-12-30T02:50:34.004Z,100.00
2023-12-30T02:53:06.704Z,100.00
2023-12-30T02:55:37.216Z,100.00
2023-12-30T02:58:07.307Z,100.00
2023-12-30T03:00:37.154Z,100.00
2023-12-30T03:03:07.676Z,100.00
2023-12-30T03:05:37.517Z,100.00
2023-12-30T03:08:10.219Z,100.00
2023-12-30T03:10:40.028Z,100.00
2023-12-30T03:13:09.847Z,100.00
2023-12-30T03:15:39.652Z,100.00
2023-12-30T03:18:09.714Z,100.00
2023-12-30T03:20:39.524Z,100.00
2023-12-30T03:23:11.887Z,100.00
2023-12-30T03:25:41.617Z,100.00
2023-12-30T03:28:11.453Z,100.00
2023-12-30T03:30:41.308Z,100.00
2023-12-30T03:33:11.565Z,100.00
2023-12-30T03:35:41.457Z,100.00
2023-12-30T03:38:13.999Z,100.00
2023-12-30T03:40:44.006Z,100.00
2023-12-30T03:43:13.864Z,100.00
2023-12-30T03:45:44.069Z,100.00
2023-12-30T03:48:15.017Z,100.00
2023-12-30T03:50:45.026Z,100.00
2023-12-30T03:53:17.863Z,100.00
2023-12-30T03:55:48.272Z,100.00
2023-12-30T03:58:18.181Z,100.00
2023-12-30T04:00:48.078Z,100.00
2023-12-30T04:03:15.983Z,100.00
2023-12-30T04:05:46.186Z,100.00
2023-12-30T04:08:18.646Z,100.00
2023-12-30T04:10:48.429Z,100.00
2023-12-30T04:13:18.207Z,100.00
2023-12-30T04:15:48.074Z,100.00
2023-12-30T04:18:18.111Z,100.00
2023-12-30T04:20:48.077Z,100.00
2023-12-30T04:23:20.459Z,100.00
2023-12-30T04:25:50.468Z,100.00
2023-12-30T04:28:20.440Z,100.00
2023-12-30T04:30:50.706Z,100.00
2023-12-30T04:33:20.689Z,100.00
2023-12-30T04:35:50.717Z,100.00
2023-12-30T04:38:23.164Z,100.00
2023-12-30T04:40:53.318Z,100.00
2023-12-30T04:43:23.115Z,100.00
2023-12-30T04:45:53.444Z,100.00
2023-12-30T04:48:23.346Z,100.00
2023-12-30T04:50:53.522Z,100.00
2023-12-30T04:53:26.662Z,100.00
2023-12-30T04:55:56.396Z,100.00
2023-12-30T04:58:26.193Z,100.00
2023-12-30T05:00:56.086Z,100.00
2023-12-30T05:03:25.920Z,100.00
2023-12-30T05:05:57.124Z,100.00
2023-12-30T05:08:29.589Z,100.00
2023-12-30T05:10:59.607Z,100.00
2023-12-30T05:13:29.657Z,100.00
2023-12-30T05:15:59.463Z,100.00
2023-12-30T05:18:29.318Z,100.00
2023-12-30T05:20:59.348Z,100.00
2023-12-30T05:23:31.724Z,100.00
2023-12-30T05:26:01.531Z,100.00
2023-12-30T05:28:31.552Z,100.00
2023-12-30T05:31:01.479Z,100.00
2023-12-30T05:33:31.388Z,100.00
2023-12-30T05:36:01.233Z,100.00
2023-12-30T05:38:33.837Z,100.00
2023-12-30T05:41:03.759Z,100.00
2023-12-30T05:43:33.617Z,100.00
2023-12-30T05:46:03.459Z,100.00
2023-12-30T05:48:33.323Z,100.00
2023-12-30T05:51:03.292Z,100.00
2023-12-30T05:53:36.693Z,100.00
2023-12-30T05:56:06.961Z,100.00
2023-12-30T05:58:36.913Z,100.00
2023-12-30T06:01:07.148Z,100.00
2023-12-30T06:03:36.973Z,100.00
2023-12-30T06:06:07.027Z,100.00
2023-12-30T06:08:39.440Z,100.00
2023-12-30T06:11:09.300Z,100.00
2023-12-30T06:13:40.555Z,100.00
2023-12-30T06:16:12.072Z,100.00
2023-12-30T06:18:42.021Z,100.00
2023-12-30T06:21:12.055Z,100.00
2023-12-30T06:23:44.708Z,100.00
2023-12-30T06:26:14.469Z,100.00
2023-12-30T06:28:44.394Z,100.00
2023-12-30T06:31:14.313Z,100.00
2023-12-30T06:33:44.402Z,100.00
2023-12-30T06:36:22.731Z,100.00
2023-12-30T06:38:55.384Z,100.00
2023-12-30T06:41:25.368Z,100.00
2023-12-30T06:43:55.653Z,100.00
2023-12-30T06:46:25.450Z,100.00
2023-12-30T06:48:55.463Z,100.00
2023-12-30T06:51:25.312Z,100.00
2023-12-30T06:53:57.733Z,100.00
2023-12-30T06:56:27.829Z,100.00
2023-12-30T06:58:57.768Z,100.00
2023-12-30T07:01:28.363Z,100.00
2023-12-30T07:03:58.206Z,100.00
2023-12-30T07:06:27.960Z,100.00
2023-12-30T07:09:00.295Z,100.00
2023-12-30T07:11:30.624Z,100.00
2023-12-30T07:14:00.368Z,100.00
2023-12-30T07:16:30.164Z,100.00
2023-12-30T07:19:00.021Z,100.00
2023-12-30T07:21:30.044Z,100.00
2023-12-30T07:24:02.393Z,100.00
2023-12-30T07:26:32.139Z,100.00
2023-12-30T07:29:02.443Z,100.00
2023-12-30T07:31:32.226Z,100.00
2023-12-30T07:34:02.500Z,100.00
2023-12-30T07:36:32.891Z,100.00
2023-12-30T07:39:05.624Z,100.00
2023-12-30T07:41:35.972Z,100.00
2023-12-30T07:44:07.091Z,100.00
2023-12-30T07:46:37.164Z,100.00
2023-12-30T07:49:07.449Z,100.00
2023-12-30T07:51:39.035Z,100.00
2023-12-30T07:54:14.244Z,100.00
2023-12-30T07:56:44.366Z,100.00
2023-12-30T07:59:15.314Z,100.00
2023-12-30T08:01:46.978Z,100.00
2023-12-30T08:04:17.866Z,100.00
2023-12-30T08:06:48.216Z,100.00
2023-12-30T08:09:21.062Z,100.00
2023-12-30T08:11:59.205Z,100.00
2023-12-30T08:14:32.616Z,100.00
2023-12-30T08:17:02.678Z,100.00
2023-12-30T08:19:32.419Z,100.00
2023-12-30T08:22:03.562Z,100.00
2023-12-30T08:24:35.894Z,100.00
2023-12-30T08:27:05.678Z,100.00
2023-12-30T08:29:35.657Z,100.00
2023-12-30T08:32:08.093Z,100.00
2023-12-30T08:34:38.007Z,100.00
2023-12-30T08:37:09.970Z,100.00
2023-12-30T08:39:42.923Z,100.00
2023-12-30T08:42:12.691Z,100.00
2023-12-30T08:44:45.293Z,100.00
2023-12-30T08:47:16.764Z,100.00
2023-12-30T08:49:46.684Z,100.00
2023-12-30T08:52:16.626Z,100.00
2023-12-30T08:54:48.969Z,100.00
2023-12-30T08:57:18.781Z,100.00
2023-12-30T08:59:49.560Z,100.00
2023-12-30T09:02:19.429Z,99.84
2023-12-30T09:04:49.203Z,99.61
2023-12-30T09:07:19.093Z,99.38
2023-12-30T09:09:51.535Z,99.30
2023-12-30T09:12:21.424Z,99.32
2023-12-30T09:14:51.241Z,99.12
2023-12-30T09:17:21.279Z,99.21
2023-12-30T09:19:51.088Z,99.06
2023-12-30T09:22:20.881Z,98.73
2023-12-30T09:24:53.239Z,98.72
2023-12-30T09:27:22.980Z,98.46
2023-12-30T09:29:52.737Z,98.35
2023-12-30T09:32:23.877Z,98.01
2023-12-30T09:34:54.820Z,98.21
2023-12-30T09:37:24.671Z,97.89
2023-12-30T09:39:57.211Z,97.90
2023-12-30T09:42:27.194Z,97.46
2023-12-30T09:44:57.765Z,97.30
2023-12-30T09:47:28.419Z,97.09
2023-12-30T09:49:58.692Z,96.80
2023-12-30T09:52:28.501Z,96.88
2023-12-30T09:55:00.879Z,96.44
2023-12-30T09:57:30.933Z,96.26
2023-12-30T10:00:01.150Z,95.81
2023-12-30T10:02:31.313Z,95.87
2023-12-30T10:05:01.896Z,95.28
2023-12-30T10:07:33.127Z,95.18
2023-12-30T10:10:06.043Z,94.98
2023-12-30T10:12:35.842Z,94.24
2023-12-30T10:15:05.536Z,94.09
2023-12-30T10:17:35.544Z,93.88
2023-12-30T10:20:05.972Z,93.60
2023-12-30T10:22:36.705Z,93.32
2023-12-30T10:25:10.682Z,92.77
2023-12-30T10:27:42.763Z,92.46
2023-12-30T10:30:16.164Z,92.13
2023-12-30T10:32:46.317Z,91.74
2023-12-30T10:35:16.306Z,91.44
2023-12-30T10:37:46.476Z,91.29
2023-12-30T10:40:19.636Z,90.78
2023-12-30T10:42:49.349Z,90.51
2023-12-30T10:45:19.709Z,89.81
2023-12-30T10:47:49.667Z,89.51
2023-12-30T10:50:19.877Z,89.52
2023-12-30T10:53:00.430Z,89.03
2023-12-30T10:55:37.863Z,88.62
2023-12-30T10:58:10.820Z,88.38
2023-12-30T11:00:41.779Z,87.76
2023-12-30T11:03:11.546Z,87.63
2023-12-30T11:05:47.337Z,87.70
2023-12-30T11:08:19.138Z,87.41
2023-12-30T11:10:54.297Z,87.44
2023-12-30T11:13:24.215Z,87.72
2023-12-30T11:15:54.217Z,87.66
2023-12-30T11:18:49.345Z,87.34
2023-12-30T11:21:37.314Z,87.20
2023-12-30T11:24:09.094Z,87.36
2023-12-30T11:26:46.061Z,87.12
2023-12-30T11:29:18.366Z,86.69
2023-12-30T11:31:50.732Z,86.82
2023-12-30T11:34:20.828Z,86.44
2023-12-30T11:36:51.445Z,86.34
2023-12-30T11:39:27.744Z,86.35
2023-12-30T11:42:00.749Z,86.21
2023-12-30T11:44:31.575Z,86.07
2023-12-30T11:47:02.244Z,85.71
2023-12-30T11:49:32.825Z,85.61
2023-12-30T11:52:06.236Z,85.34
2023-12-30T11:54:37.183Z,84.98
2023-12-30T11:57:11.166Z,85.09
2023-12-30T11:59:45.376Z,85.14
2023-12-30T12:02:16.002Z,85.17
2023-12-30T12:04:46.427Z,85.21
2023-12-30T12:07:16.216Z,85.05
2023-12-30T12:09:46.429Z,84.93
2023-12-30T12:12:24.932Z,84.62
2023-12-30T12:14:55.756Z,84.47
2023-12-30T12:17:25.536Z,83.95
2023-12-30T12:19:55.310Z,83.58
2023-12-30T12:22:25.121Z,83.45
2023-12-30T12:24:56.510Z,83.08
2023-12-30T12:27:28.935Z,83.13
2023-12-30T12:29:58.950Z,82.90
2023-12-30T12:32:31.117Z,83.05
2023-12-30T12:35:02.091Z,83.14
2023-12-30T12:37:32.775Z,82.73
2023-12-30T12:40:00.174Z,82.89
2023-12-30T12:42:32.651Z,83.07
2023-12-30T12:45:02.398Z,83.16
2023-12-30T12:47:32.189Z,83.11
2023-12-30T12:50:02.280Z,82.84
2023-12-30T12:52:32.277Z,82.83
2023-12-30T12:55:02.131Z,82.71
2023-12-30T12:57:34.947Z,82.82
2023-12-30T13:00:08.491Z,82.68
2023-12-30T13:02:38.632Z,82.76
2023-12-30T13:05:11.091Z,82.81
2023-12-30T13:07:43.460Z,82.37
2023-12-30T13:10:35.414Z,82.08
2023-12-30T13:13:08.755Z,81.98
2023-12-30T13:15:40.040Z,82.16
2023-12-30T13:18:14.685Z,82.39
2023-12-30T13:20:46.592Z,82.46
2023-12-30T13:23:17.502Z,82.01
2023-12-30T13:25:48.603Z,81.80
2023-12-30T13:28:21.218Z,81.77
2023-12-30T13:30:52.235Z,81.52
2023-12-30T13:33:22.937Z,81.37
2023-12-30T13:35:53.696Z,81.34
2023-12-30T13:38:25.088Z,81.17
2023-12-30T13:40:59.877Z,81.06
2023-12-30T13:43:32.206Z,80.24
2023-12-30T13:46:23.241Z,80.01
2023-12-30T13:49:20.526Z,80.14
2023-12-30T13:51:50.283Z,79.76
2023-12-30T13:54:22.028Z,79.61
2023-12-30T13:57:02.429Z,79.50
2023-12-30T13:59:34.771Z,79.30
2023-12-30T14:02:04.782Z,79.25
2023-12-30T14:04:35.268Z,79.26
2023-12-30T14:07:10.558Z,78.98
2023-12-30T14:09:50.602Z,79.07
2023-12-30T14:12:21.731Z,79.19
2023-12-30T14:14:59.650Z,79.48
2023-12-30T14:17:32.694Z,79.76
2023-12-30T14:20:05.639Z,79.73
2023-12-30T14:22:36.060Z,79.94
2023-12-30T14:25:06.599Z,80.25
2023-12-30T14:27:37.200Z,80.53
2023-12-30T14:30:13.337Z,80.67
2023-12-30T14:32:45.817Z,80.77
2023-12-30T14:35:16.862Z,81.16
2023-12-30T14:37:46.619Z,81.27
2023-12-30T14:40:17.009Z,81.46
2023-12-30T14:42:48.461Z,81.71
2023-12-30T14:45:22.192Z,81.99
2023-12-30T14:47:52.343Z,82.15
2023-12-30T14:50:22.416Z,81.93
2023-12-30T14:52:52.256Z,82.03
2023-12-30T14:55:19.688Z,81.92
2023-12-30T14:57:50.147Z,81.73
2023-12-30T15:00:25.496Z,81.64
2023-12-30T15:02:56.258Z,81.70
2023-12-30T15:05:26.384Z,81.76
2023-12-30T15:07:57.845Z,81.80
2023-12-30T15:10:28.138Z,81.87
2023-12-30T15:12:57.914Z,81.90
2023-12-30T15:15:30.197Z,81.63
2023-12-30T15:18:00.326Z,81.68
2023-12-30T15:20:30.322Z,81.33
2023-12-30T15:23:00.129Z,81.20
2023-12-30T15:25:29.905Z,81.05
2023-12-30T15:27:59.834Z,80.90
2023-12-30T15:30:32.199Z,80.96
2023-12-30T15:33:02.620Z,80.67
2023-12-30T15:35:32.898Z,80.69
2023-12-30T15:38:02.730Z,80.58
2023-12-30T15:40:34.244Z,80.29
2023-12-30T15:43:08.159Z,80.06
2023-12-30T15:45:42.452Z,80.02
2023-12-30T15:48:12.421Z,79.65
2023-12-30T15:50:42.257Z,79.47
2023-12-30T15:53:12.232Z,79.50
2023-12-30T15:55:43.328Z,79.38
2023-12-30T15:58:14.542Z,79.34
2023-12-30T16:00:46.907Z,79.38
2023-12-30T16:03:17.742Z,79.36
2023-12-30T16:05:48.813Z,79.30
2023-12-30T16:08:19.296Z,79.20
2023-12-30T16:10:50.192Z,79.22
2023-12-30T16:13:20.376Z,79.30
2023-12-30T16:15:54.177Z,79.39
2023-12-30T16:18:26.235Z,79.60
2023-12-30T16:20:57.447Z,79.97
2023-12-30T16:23:27.535Z,80.11
2023-12-30T16:25:58.250Z,80.24
2023-12-30T16:28:28.435Z,80.37
2023-12-30T16:31:01.370Z,80.29
2023-12-30T16:33:31.624Z,80.50
2023-12-30T16:36:01.976Z,80.70
2023-12-30T16:38:31.726Z,80.76
2023-12-30T16:41:01.730Z,80.88
2023-12-30T16:43:35.398Z,80.99
2023-12-30T16:46:08.280Z,81.14
2023-12-30T16:48:38.957Z,81.50
2023-12-30T16:51:09.000Z,81.82
2023-12-30T16:53:39.179Z,82.36
2023-12-30T16:56:09.442Z,82.50
2023-12-30T16:58:40.045Z,82.97
2023-12-30T17:01:12.487Z,83.41
2023-12-30T17:03:42.254Z,83.37
2023-12-30T17:06:12.348Z,83.66
2023-12-30T17:08:42.174Z,84.20
2023-12-30T17:11:12.046Z,84.55
2023-12-30T17:13:46.775Z,85.01
2023-12-30T17:16:25.920Z,85.30
2023-12-30T17:18:56.169Z,85.55
2023-12-30T17:21:25.887Z,85.96
2023-12-30T17:23:55.614Z,86.03
2023-12-30T17:26:25.379Z,86.33
2023-12-30T17:28:55.419Z,86.52
2023-12-30T17:31:27.869Z,86.37
2023-12-30T17:33:58.356Z,86.41
2023-12-30T17:36:28.123Z,86.62
2023-12-30T17:38:58.093Z,86.63
2023-12-30T17:41:28.078Z,86.75
2023-12-30T17:43:58.762Z,86.93
2023-12-30T17:46:32.221Z,87.11
2023-12-30T17:49:02.579Z,86.98
2023-12-30T17:51:32.615Z,86.88
2023-12-30T17:54:02.658Z,87.08
2023-12-30T17:56:32.760Z,87.56
2023-12-30T17:59:02.540Z,87.80
2023-12-30T18:01:35.977Z,88.35
2023-12-30T18:04:05.792Z,88.54
2023-12-30T18:06:38.080Z,88.98
2023-12-30T18:09:11.239Z,88.84
2023-12-30T18:11:41.709Z,88.94
2023-12-30T18:14:12.879Z,88.84
2023-12-30T18:16:45.405Z,88.77
2023-12-30T18:19:15.839Z,88.96
2023-12-30T18:21:46.771Z,88.78
2023-12-30T18:24:16.850Z,88.73
2023-12-30T18:26:51.364Z,89.16
2023-12-30T18:29:21.158Z,89.15
2023-12-30T18:31:53.636Z,89.22
2023-12-30T18:34:23.568Z,89.11
2023-12-30T18:36:53.509Z,89.38
2023-12-30T18:39:23.380Z,89.50
2023-12-30T18:41:53.173Z,89.35
2023-12-30T18:44:23.058Z,89.70
2023-12-30T18:46:55.759Z,89.89
2023-12-30T18:49:25.624Z,90.29
2023-12-30T18:51:55.666Z,90.23
2023-12-30T18:54:25.669Z,90.06
2023-12-30T18:56:55.936Z,90.05
2023-12-30T18:59:25.822Z,90.21
2023-12-30T19:01:58.497Z,90.21
2023-12-30T19:04:28.400Z,89.94
2023-12-30T19:06:58.170Z,90.07
2023-12-30T19:09:27.947Z,90.18
2023-12-30T19:11:57.689Z,90.20
2023-12-30T19:14:27.480Z,90.33
2023-12-30T19:16:59.902Z,90.51
2023-12-30T19:19:29.719Z,90.91
2023-12-30T19:22:00.102Z,91.12
2023-12-30T19:24:29.915Z,91.58
2023-12-30T19:26:59.672Z,91.65
2023-12-30T19:29:29.425Z,91.83
2023-12-30T19:32:02.353Z,91.89
2023-12-30T19:34:32.721Z,92.17
2023-12-30T19:37:03.197Z,92.29
2023-12-30T19:39:33.290Z,92.64
2023-12-30T19:42:03.614Z,92.75
2023-12-30T19:44:33.692Z,92.86
2023-12-30T19:47:06.432Z,93.19
2023-12-30T19:49:36.477Z,93.23
2023-12-30T19:52:06.867Z,93.46
2023-12-30T19:54:37.292Z,93.64
2023-12-30T19:57:07.318Z,93.76
2023-12-30T19:59:41.114Z,93.67
2023-12-30T20:02:13.579Z,93.58
2023-12-30T20:04:43.820Z,93.56
2023-12-30T20:07:13.744Z,93.55
2023-12-30T20:09:45.786Z,93.14
2023-12-30T20:12:17.757Z,93.01
2023-12-30T20:14:47.695Z,92.97
2023-12-30T20:17:20.279Z,93.18
2023-12-30T20:19:50.476Z,93.07
2023-12-30T20:22:21.206Z,93.20
2023-12-30T20:24:51.023Z,93.17
2023-12-30T20:27:20.794Z,93.41
2023-12-30T20:29:50.918Z,93.32
2023-12-30T20:32:23.430Z,92.98
2023-12-30T20:34:54.207Z,93.05
2023-12-30T20:37:24.697Z,93.05
2023-12-30T20:39:54.512Z,92.82
2023-12-30T20:42:27.663Z,92.91
2023-12-30T20:44:57.473Z,92.83
2023-12-30T20:47:29.880Z,92.95
2023-12-30T20:49:59.756Z,92.89
2023-12-30T20:52:29.635Z,92.91
2023-12-30T20:55:01.190Z,92.60
2023-12-30T20:57:31.107Z,92.69
2023-12-30T21:00:00.917Z,92.36
2023-12-30T21:02:33.271Z,92.36
2023-12-30T21:05:03.035Z,92.52
2023-12-30T21:07:32.828Z,92.30
2023-12-30T21:10:03.240Z,92.32
2023-12-30T21:12:33.004Z,92.38
2023-12-30T21:15:02.799Z,92.29
2023-12-30T21:17:35.160Z,91.88
2023-12-30T21:20:06.311Z,92.15
2023-12-30T21:22:36.147Z,91.85
2023-12-30T21:25:15.868Z,92.04
2023-12-30T21:27:52.942Z,92.43
2023-12-30T21:30:22.765Z,92.73
2023-12-30T21:32:56.019Z,93.01
2023-12-30T21:35:25.894Z,93.21
2023-12-30T21:37:56.016Z,93.42
2023-12-30T21:40:26.056Z,93.79
2023-12-30T21:42:55.889Z,93.65
2023-12-30T21:45:25.673Z,93.33
2023-12-30T21:47:58.091Z,93.28
2023-12-30T21:50:28.406Z,93.20
2023-12-30T21:52:58.710Z,93.03
2023-12-30T21:55:28.499Z,93.34
2023-12-30T21:57:58.291Z,93.35
2023-12-30T22:00:28.147Z,93.44
2023-12-30T22:03:00.660Z,93.43
2023-12-30T22:05:30.836Z,93.54
2023-12-30T22:08:00.611Z,93.54
2023-12-30T22:10:30.566Z,93.68
2023-12-30T22:13:00.520Z,93.78
2023-12-30T22:15:30.928Z,93.74
2023-12-30T22:18:03.442Z,93.96
2023-12-30T22:20:33.204Z,94.15
2023-12-30T22:23:03.257Z,94.48
2023-12-30T22:25:33.225Z,94.45
2023-12-30T22:28:02.957Z,94.38
2023-12-30T22:30:32.813Z,94.55
2023-12-30T22:33:05.437Z,94.40
2023-12-30T22:35:35.337Z,94.61
2023-12-30T22:38:05.173Z,94.74
2023-12-30T22:40:36.571Z,94.76
2023-12-30T22:43:07.005Z,94.69
2023-12-30T22:45:38.232Z,94.89
2023-12-30T22:48:11.910Z,94.95
2023-12-30T22:50:42.177Z,94.99
2023-12-30T22:53:11.916Z,95.05
2023-12-30T22:55:41.722Z,95.31
2023-12-30T22:58:11.712Z,95.15
2023-12-30T23:00:41.510Z,95.21
2023-12-30T23:03:15.402Z,95.53
2023-12-30T23:05:45.206Z,95.30
2023-12-30T23:08:14.987Z,95.30
2023-12-30T23:10:45.342Z,95.43
2023-12-30T23:13:15.789Z,95.44
2023-12-30T23:15:46.811Z,95.76
2023-12-30T23:18:19.540Z,95.85
2023-12-30T23:20:49.382Z,96.24
2023-12-30T23:23:19.133Z,96.68
2023-12-30T23:25:49.078Z,96.77
2023-12-30T23:28:18.905Z,97.21
2023-12-30T23:30:48.668Z,97.71
2023-12-30T23:33:21.238Z,97.61
2023-12-30T23:35:51.099Z,97.49
2023-12-30T23:38:20.846Z,97.71
2023-12-30T23:40:50.765Z,97.55
2023-12-30T23:43:20.581Z,97.72
2023-12-30T23:45:50.613Z,97.98
2023-12-30T23:48:23.254Z,97.87
2023-12-30T23:50:53.182Z,98.10
2023-12-30T23:53:22.991Z,98.16
2023-12-30T23:55:53.286Z,98.39
2023-12-30T23:58:23.133Z,98.53
